sensor_id;sensor_type;location;lat;lon;timestamp;P1;durP1;ratioP1;P2;durP2;ratioP2
71769;SDS011;66386;52.122;5.420;2023-03-21T00:00:22;17.27;;;8.98;;
71769;SDS011;66386;52.122;5.420;2023-03-21T00:02:48;12.43;;;8.48;;
71769;SDS011;66386;52.122;5.420;2023-03-21T00:05:15;12.07;;;8.70;;
71769;SDS011;66386;52.122;5.420;2023-03-21T00:07:42;11.25;;;8.35;;
71769;SDS011;66386;52.122;5.420;2023-03-21T00:10:08;14.70;;;8.48;;
71769;SDS011;66386;52.122;5.420;2023-03-21T00:12:44;14.05;;;8.50;;
71769;SDS011;66386;52.122;5.420;2023-03-21T00:15:11;14.07;;;8.82;;
71769;SDS011;66386;52.122;5.420;2023-03-21T00:17:38;14.10;;;8.43;;
71769;SDS011;66386;52.122;5.420;2023-03-21T00:20:05;14.10;;;8.82;;
71769;SDS011;66386;52.122;5.420;2023-03-21T00:22:40;14.25;;;8.75;;
71769;SDS011;66386;52.122;5.420;2023-03-21T00:25:07;13.52;;;8.63;;
71769;SDS011;66386;52.122;5.420;2023-03-21T00:27:35;11.73;;;8.98;;
71769;SDS011;66386;52.122;5.420;2023-03-21T00:30:22;10.83;;;8.03;;
71769;SDS011;66386;52.122;5.420;2023-03-21T00:32:49;10.57;;;7.18;;
71769;SDS011;66386;52.122;5.420;2023-03-21T00:35:22;11.50;;;7.35;;
71769;SDS011;66386;52.122;5.420;2023-03-21T00:38:08;13.05;;;7.97;;
71769;SDS011;66386;52.122;5.420;2023-03-21T00:40:35;12.77;;;8.15;;
71769;SDS011;66386;52.122;5.420;2023-03-21T00:43:12;11.47;;;7.80;;
71769;SDS011;66386;52.122;5.420;2023-03-21T00:45:46;12.90;;;7.63;;
71769;SDS011;66386;52.122;5.420;2023-03-21T00:48:13;9.73;;;7.25;;
71769;SDS011;66386;52.122;5.420;2023-03-21T00:50:39;9.27;;;6.85;;
71769;SDS011;66386;52.122;5.420;2023-03-21T00:53:06;9.82;;;6.65;;
71769;SDS011;66386;52.122;5.420;2023-03-21T00:55:32;7.63;;;6.53;;
71769;SDS011;66386;52.122;5.420;2023-03-21T00:57:59;9.43;;;7.20;;
71769;SDS011;66386;52.122;5.420;2023-03-21T01:00:27;9.70;;;6.88;;
71769;SDS011;66386;52.122;5.420;2023-03-21T01:02:54;14.10;;;7.25;;
71769;SDS011;66386;52.122;5.420;2023-03-21T01:05:35;12.50;;;7.43;;
71769;SDS011;66386;52.122;5.420;2023-03-21T01:08:23;11.63;;;8.57;;
71769;SDS011;66386;52.122;5.420;2023-03-21T01:11:00;13.73;;;9.02;;
71769;SDS011;66386;52.122;5.420;2023-03-21T01:13:28;14.55;;;8.32;;
71769;SDS011;66386;52.122;5.420;2023-03-21T01:15:55;14.45;;;9.48;;
71769;SDS011;66386;52.122;5.420;2023-03-21T01:18:23;20.02;;;10.00;;
71769;SDS011;66386;52.122;5.420;2023-03-21T01:20:53;15.60;;;8.77;;
71769;SDS011;66386;52.122;5.420;2023-03-21T01:23:21;13.63;;;9.23;;
71769;SDS011;66386;52.122;5.420;2023-03-21T01:25:48;12.63;;;9.20;;
71769;SDS011;66386;52.122;5.420;2023-03-21T01:28:16;16.25;;;8.50;;
71769;SDS011;66386;52.122;5.420;2023-03-21T01:30:46;14.60;;;9.68;;
71769;SDS011;66386;52.122;5.420;2023-03-21T01:33:17;17.00;;;9.23;;
71769;SDS011;66386;52.122;5.420;2023-03-21T01:35:44;14.07;;;9.65;;
71769;SDS011;66386;52.122;5.420;2023-03-21T01:38:22;14.93;;;9.68;;
71769;SDS011;66386;52.122;5.420;2023-03-21T01:40:49;16.15;;;10.27;;
71769;SDS011;66386;52.122;5.420;2023-03-21T01:43:21;14.90;;;9.27;;
71769;SDS011;66386;52.122;5.420;2023-03-21T01:48:38;16.02;;;10.40;;
71769;SDS011;66386;52.122;5.420;2023-03-21T01:51:09;18.38;;;10.73;;
71769;SDS011;66386;52.122;5.420;2023-03-21T01:53:38;18.27;;;11.10;;
71769;SDS011;66386;52.122;5.420;2023-03-21T01:56:22;17.15;;;10.60;;
71769;SDS011;66386;52.122;5.420;2023-03-21T01:58:54;23.33;;;12.70;;
71769;SDS011;66386;52.122;5.420;2023-03-21T02:01:28;23.02;;;11.80;;
71769;SDS011;66386;52.122;5.420;2023-03-21T02:03:57;22.92;;;11.85;;
71769;SDS011;66386;52.122;5.420;2023-03-21T02:06:30;20.42;;;11.90;;
71769;SDS011;66386;52.122;5.420;2023-03-21T02:09:03;20.30;;;12.18;;
71769;SDS011;66386;52.122;5.420;2023-03-21T02:11:33;21.30;;;12.73;;
71769;SDS011;66386;52.122;5.420;2023-03-21T02:14:02;22.30;;;12.48;;
71769;SDS011;66386;52.122;5.420;2023-03-21T02:16:50;20.65;;;11.68;;
71769;SDS011;66386;52.122;5.420;2023-03-21T02:22:45;21.88;;;12.27;;
71769;SDS011;66386;52.122;5.420;2023-03-21T02:31:27;23.98;;;11.45;;
71769;SDS011;66386;52.122;5.420;2023-03-21T02:42:48;23.02;;;12.63;;
71769;SDS011;66386;52.122;5.420;2023-03-21T02:45:38;21.27;;;12.45;;
71769;SDS011;66386;52.122;5.420;2023-03-21T02:48:11;20.42;;;11.90;;
71769;SDS011;66386;52.122;5.420;2023-03-21T02:50:55;22.63;;;12.60;;
71769;SDS011;66386;52.122;5.420;2023-03-21T02:53:24;27.40;;;12.27;;
71769;SDS011;66386;52.122;5.420;2023-03-21T02:55:53;28.92;;;12.18;;
71769;SDS011;66386;52.122;5.420;2023-03-21T02:58:22;27.88;;;12.15;;
71769;SDS011;66386;52.122;5.420;2023-03-21T03:00:50;29.25;;;12.60;;
71769;SDS011;66386;52.122;5.420;2023-03-21T03:03:20;21.58;;;11.48;;
71769;SDS011;66386;52.122;5.420;2023-03-21T03:05:59;24.07;;;12.23;;
71769;SDS011;66386;52.122;5.420;2023-03-21T03:11:30;21.27;;;11.00;;
71769;SDS011;66386;52.122;5.420;2023-03-21T03:16:55;18.52;;;10.23;;
71769;SDS011;66386;52.122;5.420;2023-03-21T03:19:43;22.17;;;10.87;;
71769;SDS011;66386;52.122;5.420;2023-03-21T03:25:35;18.10;;;11.05;;
71769;SDS011;66386;52.122;5.420;2023-03-21T03:28:08;19.92;;;10.63;;
71769;SDS011;66386;52.122;5.420;2023-03-21T03:30:37;20.80;;;10.60;;
71769;SDS011;66386;52.122;5.420;2023-03-21T03:33:16;22.40;;;10.43;;
71769;SDS011;66386;52.122;5.420;2023-03-21T03:35:48;20.90;;;10.68;;
71769;SDS011;66386;52.122;5.420;2023-03-21T03:38:31;20.63;;;10.40;;
71769;SDS011;66386;52.122;5.420;2023-03-21T03:41:01;22.85;;;10.55;;
71769;SDS011;66386;52.122;5.420;2023-03-21T03:43:40;24.50;;;11.40;;
71769;SDS011;66386;52.122;5.420;2023-03-21T03:46:16;19.33;;;10.63;;
71769;SDS011;66386;52.122;5.420;2023-03-21T03:48:50;24.30;;;11.75;;
71769;SDS011;66386;52.122;5.420;2023-03-21T03:51:27;20.75;;;10.75;;
71769;SDS011;66386;52.122;5.420;2023-03-21T03:53:59;22.17;;;11.02;;
71769;SDS011;66386;52.122;5.420;2023-03-21T03:56:30;22.88;;;11.75;;
71769;SDS011;66386;52.122;5.420;2023-03-21T03:58:56;22.23;;;11.70;;
71769;SDS011;66386;52.122;5.420;2023-03-21T04:01:23;25.73;;;11.85;;
71769;SDS011;66386;52.122;5.420;2023-03-21T04:03:49;25.65;;;11.60;;
71769;SDS011;66386;52.122;5.420;2023-03-21T04:06:28;20.60;;;12.05;;
71769;SDS011;66386;52.122;5.420;2023-03-21T04:08:55;20.77;;;12.35;;
71769;SDS011;66386;52.122;5.420;2023-03-21T04:11:22;24.23;;;10.87;;
71769;SDS011;66386;52.122;5.420;2023-03-21T04:13:49;19.35;;;11.30;;
71769;SDS011;66386;52.122;5.420;2023-03-21T04:16:15;22.90;;;11.23;;
71769;SDS011;66386;52.122;5.420;2023-03-21T04:18:42;22.10;;;11.65;;
71769;SDS011;66386;52.122;5.420;2023-03-21T04:21:12;21.10;;;11.52;;
71769;SDS011;66386;52.122;5.420;2023-03-21T04:23:39;23.00;;;11.83;;
71769;SDS011;66386;52.122;5.420;2023-03-21T04:26:06;26.40;;;12.15;;
71769;SDS011;66386;52.122;5.420;2023-03-21T04:28:33;26.05;;;12.27;;
71769;SDS011;66386;52.122;5.420;2023-03-21T04:31:04;19.88;;;10.90;;
71769;SDS011;66386;52.122;5.420;2023-03-21T04:33:44;24.63;;;11.32;;
71769;SDS011;66386;52.122;5.420;2023-03-21T04:36:13;23.13;;;11.80;;
71769;SDS011;66386;52.122;5.420;2023-03-21T04:38:50;19.58;;;11.60;;
71769;SDS011;66386;52.122;5.420;2023-03-21T04:41:17;23.17;;;11.43;;
71769;SDS011;66386;52.122;5.420;2023-03-21T04:43:44;22.00;;;11.18;;
71769;SDS011;66386;52.122;5.420;2023-03-21T04:46:12;21.95;;;11.18;;
71769;SDS011;66386;52.122;5.420;2023-03-21T04:48:39;26.83;;;12.50;;
71769;SDS011;66386;52.122;5.420;2023-03-21T04:51:05;24.73;;;11.93;;
71769;SDS011;66386;52.122;5.420;2023-03-21T04:53:32;22.00;;;12.02;;
71769;SDS011;66386;52.122;5.420;2023-03-21T04:55:58;23.30;;;11.52;;
71769;SDS011;66386;52.122;5.420;2023-03-21T04:58:25;25.95;;;12.77;;
71769;SDS011;66386;52.122;5.420;2023-03-21T05:00:52;28.97;;;11.37;;
71769;SDS011;66386;52.122;5.420;2023-03-21T05:03:19;26.88;;;11.65;;
71769;SDS011;66386;52.122;5.420;2023-03-21T05:05:46;22.90;;;12.00;;
71769;SDS011;66386;52.122;5.420;2023-03-21T05:08:13;18.42;;;10.30;;
71769;SDS011;66386;52.122;5.420;2023-03-21T05:10:41;20.45;;;10.68;;
71769;SDS011;66386;52.122;5.420;2023-03-21T05:13:07;17.93;;;10.37;;
71769;SDS011;66386;52.122;5.420;2023-03-21T05:15:34;25.10;;;10.38;;
71769;SDS011;66386;52.122;5.420;2023-03-21T05:18:01;17.70;;;9.38;;
71769;SDS011;66386;52.122;5.420;2023-03-21T05:20:37;18.73;;;8.98;;
71769;SDS011;66386;52.122;5.420;2023-03-21T05:23:08;18.25;;;9.00;;
71769;SDS011;66386;52.122;5.420;2023-03-21T05:25:37;21.47;;;9.77;;
71769;SDS011;66386;52.122;5.420;2023-03-21T05:28:05;18.67;;;8.65;;
71769;SDS011;66386;52.122;5.420;2023-03-21T05:30:32;16.85;;;8.40;;
71769;SDS011;66386;52.122;5.420;2023-03-21T05:32:59;18.08;;;8.63;;
71769;SDS011;66386;52.122;5.420;2023-03-21T05:35:26;15.25;;;8.57;;
71769;SDS011;66386;52.122;5.420;2023-03-21T05:37:52;22.63;;;8.27;;
71769;SDS011;66386;52.122;5.420;2023-03-21T05:40:19;18.63;;;8.15;;
71769;SDS011;66386;52.122;5.420;2023-03-21T05:42:46;14.20;;;8.05;;
71769;SDS011;66386;52.122;5.420;2023-03-21T05:45:13;19.05;;;7.65;;
71769;SDS011;66386;52.122;5.420;2023-03-21T05:47:40;11.55;;;7.05;;
71769;SDS011;66386;52.122;5.420;2023-03-21T05:50:07;18.43;;;8.40;;
71769;SDS011;66386;52.122;5.420;2023-03-21T05:52:34;18.48;;;7.32;;
71769;SDS011;66386;52.122;5.420;2023-03-21T05:55:01;15.07;;;7.45;;
71769;SDS011;66386;52.122;5.420;2023-03-21T05:57:28;13.70;;;7.20;;
71769;SDS011;66386;52.122;5.420;2023-03-21T05:59:55;18.67;;;8.02;;
71769;SDS011;66386;52.122;5.420;2023-03-21T06:02:21;17.90;;;7.47;;
71769;SDS011;66386;52.122;5.420;2023-03-21T06:04:48;18.17;;;7.88;;
71769;SDS011;66386;52.122;5.420;2023-03-21T06:07:14;15.02;;;7.38;;
71769;SDS011;66386;52.122;5.420;2023-03-21T06:09:40;18.20;;;7.43;;
71769;SDS011;66386;52.122;5.420;2023-03-21T06:12:07;13.57;;;7.65;;
71769;SDS011;66386;52.122;5.420;2023-03-21T06:14:33;17.93;;;8.33;;
71769;SDS011;66386;52.122;5.420;2023-03-21T06:17:00;14.75;;;7.75;;
71769;SDS011;66386;52.122;5.420;2023-03-21T06:19:26;12.90;;;6.75;;
71769;SDS011;66386;52.122;5.420;2023-03-21T06:21:53;16.52;;;7.30;;
71769;SDS011;66386;52.122;5.420;2023-03-21T06:24:20;18.48;;;7.47;;
71769;SDS011;66386;52.122;5.420;2023-03-21T06:26:46;16.00;;;7.40;;
71769;SDS011;66386;52.122;5.420;2023-03-21T06:29:13;16.38;;;7.45;;
71769;SDS011;66386;52.122;5.420;2023-03-21T06:31:40;14.02;;;7.43;;
71769;SDS011;66386;52.122;5.420;2023-03-21T06:34:06;13.88;;;7.32;;
71769;SDS011;66386;52.122;5.420;2023-03-21T06:36:35;13.65;;;6.90;;
71769;SDS011;66386;52.122;5.420;2023-03-21T06:39:02;12.87;;;6.43;;
71769;SDS011;66386;52.122;5.420;2023-03-21T06:41:29;15.98;;;7.05;;
71769;SDS011;66386;52.122;5.420;2023-03-21T06:43:55;14.15;;;6.63;;
71769;SDS011;66386;52.122;5.420;2023-03-21T06:46:21;11.75;;;6.30;;
71769;SDS011;66386;52.122;5.420;2023-03-21T06:48:48;14.40;;;6.53;;
71769;SDS011;66386;52.122;5.420;2023-03-21T06:51:14;18.17;;;6.53;;
71769;SDS011;66386;52.122;5.420;2023-03-21T06:53:41;16.20;;;6.15;;
71769;SDS011;66386;52.122;5.420;2023-03-21T06:56:08;15.27;;;6.55;;
71769;SDS011;66386;52.122;5.420;2023-03-21T06:58:35;14.98;;;6.82;;
71769;SDS011;66386;52.122;5.420;2023-03-21T07:01:02;13.60;;;7.53;;
71769;SDS011;66386;52.122;5.420;2023-03-21T07:03:30;11.97;;;6.43;;
71769;SDS011;66386;52.122;5.420;2023-03-21T07:05:56;14.40;;;6.55;;
71769;SDS011;66386;52.122;5.420;2023-03-21T07:08:23;15.32;;;6.57;;
71769;SDS011;66386;52.122;5.420;2023-03-21T07:10:50;11.68;;;6.13;;
71769;SDS011;66386;52.122;5.420;2023-03-21T07:13:22;11.10;;;6.57;;
71769;SDS011;66386;52.122;5.420;2023-03-21T07:15:49;13.23;;;6.07;;
71769;SDS011;66386;52.122;5.420;2023-03-21T07:18:15;10.48;;;5.68;;
71769;SDS011;66386;52.122;5.420;2023-03-21T07:20:44;15.38;;;5.95;;
71769;SDS011;66386;52.122;5.420;2023-03-21T07:23:13;13.98;;;7.07;;
71769;SDS011;66386;52.122;5.420;2023-03-21T07:25:40;17.45;;;7.07;;
71769;SDS011;66386;52.122;5.420;2023-03-21T07:28:07;12.83;;;6.33;;
71769;SDS011;66386;52.122;5.420;2023-03-21T07:30:34;17.55;;;5.43;;
71769;SDS011;66386;52.122;5.420;2023-03-21T07:33:01;14.55;;;5.65;;
71769;SDS011;66386;52.122;5.420;2023-03-21T07:35:28;12.88;;;5.38;;
71769;SDS011;66386;52.122;5.420;2023-03-21T07:37:55;10.27;;;5.63;;
71769;SDS011;66386;52.122;5.420;2023-03-21T07:40:21;11.60;;;5.37;;
71769;SDS011;66386;52.122;5.420;2023-03-21T07:42:48;14.15;;;5.75;;
71769;SDS011;66386;52.122;5.420;2023-03-21T07:45:15;14.80;;;5.78;;
71769;SDS011;66386;52.122;5.420;2023-03-21T07:47:46;16.48;;;5.93;;
71769;SDS011;66386;52.122;5.420;2023-03-21T07:50:14;13.13;;;5.85;;
71769;SDS011;66386;52.122;5.420;2023-03-21T07:52:40;11.07;;;5.50;;
71769;SDS011;66386;52.122;5.420;2023-03-21T07:55:07;13.13;;;6.03;;
71769;SDS011;66386;52.122;5.420;2023-03-21T07:57:34;12.02;;;5.72;;
71769;SDS011;66386;52.122;5.420;2023-03-21T08:00:02;11.70;;;5.32;;
71769;SDS011;66386;52.122;5.420;2023-03-21T08:02:31;8.50;;;5.40;;
71769;SDS011;66386;52.122;5.420;2023-03-21T08:04:57;11.47;;;5.33;;
71769;SDS011;66386;52.122;5.420;2023-03-21T08:07:24;10.98;;;5.60;;
71769;SDS011;66386;52.122;5.420;2023-03-21T08:09:52;14.57;;;5.32;;
71769;SDS011;66386;52.122;5.420;2023-03-21T08:12:21;10.82;;;5.13;;
71769;SDS011;66386;52.122;5.420;2023-03-21T08:14:48;10.65;;;5.25;;
71769;SDS011;66386;52.122;5.420;2023-03-21T08:17:14;10.30;;;4.97;;
71769;SDS011;66386;52.122;5.420;2023-03-21T08:19:41;16.20;;;5.60;;
71769;SDS011;66386;52.122;5.420;2023-03-21T08:22:07;10.35;;;5.22;;
71769;SDS011;66386;52.122;5.420;2023-03-21T08:24:36;9.77;;;5.13;;
71769;SDS011;66386;52.122;5.420;2023-03-21T08:27:02;10.00;;;4.85;;
71769;SDS011;66386;52.122;5.420;2023-03-21T08:29:28;11.70;;;5.30;;
71769;SDS011;66386;52.122;5.420;2023-03-21T08:31:55;8.43;;;4.85;;
71769;SDS011;66386;52.122;5.420;2023-03-21T08:34:23;13.70;;;5.10;;
71769;SDS011;66386;52.122;5.420;2023-03-21T08:36:49;9.20;;;4.70;;
71769;SDS011;66386;52.122;5.420;2023-03-21T08:39:16;14.60;;;4.97;;
71769;SDS011;66386;52.122;5.420;2023-03-21T08:41:43;8.13;;;5.23;;
71769;SDS011;66386;52.122;5.420;2023-03-21T08:44:09;8.48;;;5.00;;
71769;SDS011;66386;52.122;5.420;2023-03-21T08:46:36;9.20;;;4.95;;
71769;SDS011;66386;52.122;5.420;2023-03-21T08:49:03;14.38;;;5.43;;
71769;SDS011;66386;52.122;5.420;2023-03-21T08:51:29;13.23;;;4.78;;
71769;SDS011;66386;52.122;5.420;2023-03-21T08:53:56;9.83;;;4.43;;
71769;SDS011;66386;52.122;5.420;2023-03-21T08:56:23;11.30;;;4.70;;
71769;SDS011;66386;52.122;5.420;2023-03-21T08:58:50;7.47;;;4.30;;
71769;SDS011;66386;52.122;5.420;2023-03-21T09:01:17;8.50;;;4.00;;
71769;SDS011;66386;52.122;5.420;2023-03-21T09:03:43;12.85;;;4.38;;
71769;SDS011;66386;52.122;5.420;2023-03-21T09:06:10;6.47;;;4.23;;
71769;SDS011;66386;52.122;5.420;2023-03-21T09:08:40;9.25;;;4.47;;
71769;SDS011;66386;52.122;5.420;2023-03-21T09:11:07;10.07;;;4.25;;
71769;SDS011;66386;52.122;5.420;2023-03-21T09:13:34;10.43;;;4.22;;
71769;SDS011;66386;52.122;5.420;2023-03-21T09:16:01;9.48;;;3.95;;
71769;SDS011;66386;52.122;5.420;2023-03-21T09:18:27;8.20;;;3.83;;
71769;SDS011;66386;52.122;5.420;2023-03-21T09:21:10;8.02;;;3.83;;
71769;SDS011;66386;52.122;5.420;2023-03-21T09:23:39;8.50;;;3.80;;
71769;SDS011;66386;52.122;5.420;2023-03-21T09:26:06;7.90;;;3.65;;
71769;SDS011;66386;52.122;5.420;2023-03-21T09:28:35;7.85;;;3.25;;
71769;SDS011;66386;52.122;5.420;2023-03-21T09:31:04;6.53;;;3.50;;
71769;SDS011;66386;52.122;5.420;2023-03-21T09:33:31;6.25;;;3.30;;
71769;SDS011;66386;52.122;5.420;2023-03-21T09:35:58;10.18;;;3.25;;
71769;SDS011;66386;52.122;5.420;2023-03-21T09:38:26;6.75;;;3.55;;
71769;SDS011;66386;52.122;5.420;2023-03-21T09:41:02;8.50;;;3.95;;
71769;SDS011;66386;52.122;5.420;2023-03-21T09:46:23;7.95;;;4.05;;
71769;SDS011;66386;52.122;5.420;2023-03-21T09:49:05;6.97;;;3.58;;
71769;SDS011;66386;52.122;5.420;2023-03-21T09:51:42;6.82;;;3.63;;
71769;SDS011;66386;52.122;5.420;2023-03-21T09:54:18;9.05;;;4.60;;
71769;SDS011;66386;52.122;5.420;2023-03-21T09:56:51;9.10;;;4.00;;
71769;SDS011;66386;52.122;5.420;2023-03-21T09:59:24;8.85;;;4.07;;
71769;SDS011;66386;52.122;5.420;2023-03-21T10:01:57;5.75;;;3.78;;
71769;SDS011;66386;52.122;5.420;2023-03-21T10:04:25;9.65;;;4.55;;
71769;SDS011;66386;52.122;5.420;2023-03-21T10:06:54;10.75;;;4.35;;
71769;SDS011;66386;52.122;5.420;2023-03-21T10:09:25;9.37;;;4.37;;
71769;SDS011;66386;52.122;5.420;2023-03-21T10:12:01;6.65;;;4.07;;
71769;SDS011;66386;52.122;5.420;2023-03-21T10:14:40;9.68;;;4.68;;
71769;SDS011;66386;52.122;5.420;2023-03-21T10:22:50;10.63;;;4.50;;
71769;SDS011;66386;52.122;5.420;2023-03-21T10:25:21;7.43;;;4.50;;
71769;SDS011;66386;52.122;5.420;2023-03-21T10:27:53;11.68;;;4.75;;
71769;SDS011;66386;52.122;5.420;2023-03-21T10:30:39;8.82;;;4.40;;
71769;SDS011;66386;52.122;5.420;2023-03-21T10:33:13;9.80;;;4.47;;
71769;SDS011;66386;52.122;5.420;2023-03-21T10:35:43;6.13;;;4.60;;
71769;SDS011;66386;52.122;5.420;2023-03-21T10:38:15;10.43;;;4.15;;
71769;SDS011;66386;52.122;5.420;2023-03-21T10:40:44;9.73;;;4.28;;
71769;SDS011;66386;52.122;5.420;2023-03-21T10:43:15;6.82;;;4.22;;
71769;SDS011;66386;52.122;5.420;2023-03-21T10:45:51;9.60;;;4.28;;
71769;SDS011;66386;52.122;5.420;2023-03-21T10:48:18;10.70;;;4.20;;
71769;SDS011;66386;52.122;5.420;2023-03-21T10:50:49;8.35;;;4.10;;
71769;SDS011;66386;52.122;5.420;2023-03-21T10:53:28;6.75;;;3.60;;
71769;SDS011;66386;52.122;5.420;2023-03-21T10:56:00;6.80;;;3.60;;
71769;SDS011;66386;52.122;5.420;2023-03-21T10:58:28;6.00;;;3.72;;
71769;SDS011;66386;52.122;5.420;2023-03-21T11:01:00;7.73;;;3.87;;
71769;SDS011;66386;52.122;5.420;2023-03-21T11:03:35;4.47;;;3.50;;
71769;SDS011;66386;52.122;5.420;2023-03-21T11:08:40;7.63;;;3.70;;
71769;SDS011;66386;52.122;5.420;2023-03-21T11:11:11;8.75;;;3.70;;
71769;SDS011;66386;52.122;5.420;2023-03-21T11:13:59;5.40;;;3.60;;
71769;SDS011;66386;52.122;5.420;2023-03-21T11:16:37;9.30;;;3.58;;
71769;SDS011;66386;52.122;5.420;2023-03-21T11:19:13;6.75;;;3.33;;
71769;SDS011;66386;52.122;5.420;2023-03-21T11:21:44;6.22;;;3.17;;
71769;SDS011;66386;52.122;5.420;2023-03-21T11:24:12;7.00;;;3.50;;
71769;SDS011;66386;52.122;5.420;2023-03-21T11:26:41;7.50;;;3.70;;
71769;SDS011;66386;52.122;5.420;2023-03-21T11:29:31;6.10;;;4.05;;
71769;SDS011;66386;52.122;5.420;2023-03-21T11:32:01;7.72;;;4.10;;
71769;SDS011;66386;52.122;5.420;2023-03-21T11:35:13;8.13;;;4.10;;
71769;SDS011;66386;52.122;5.420;2023-03-21T11:37:46;11.05;;;3.95;;
71769;SDS011;66386;52.122;5.420;2023-03-21T11:40:19;6.60;;;3.40;;
71769;SDS011;66386;52.122;5.420;2023-03-21T11:42:52;10.57;;;4.05;;
71769;SDS011;66386;52.122;5.420;2023-03-21T11:45:33;9.30;;;3.80;;
71769;SDS011;66386;52.122;5.420;2023-03-21T11:48:03;7.75;;;3.33;;
71769;SDS011;66386;52.122;5.420;2023-03-21T11:50:42;6.45;;;3.33;;
71769;SDS011;66386;52.122;5.420;2023-03-21T11:56:14;8.05;;;3.88;;
71769;SDS011;66386;52.122;5.420;2023-03-21T12:07:19;8.30;;;3.73;;
71769;SDS011;66386;52.122;5.420;2023-03-21T12:19:00;6.68;;;3.70;;
71769;SDS011;66386;52.122;5.420;2023-03-21T12:24:53;7.72;;;3.85;;
71769;SDS011;66386;52.122;5.420;2023-03-21T12:30:22;6.10;;;3.42;;
71769;SDS011;66386;52.122;5.420;2023-03-21T12:33:15;6.25;;;4.10;;
71769;SDS011;66386;52.122;5.420;2023-03-21T12:39:28;6.35;;;3.90;;
71769;SDS011;66386;52.122;5.420;2023-03-21T12:41:57;9.68;;;3.70;;
71769;SDS011;66386;52.122;5.420;2023-03-21T12:44:35;7.82;;;4.00;;
71769;SDS011;66386;52.122;5.420;2023-03-21T12:47:08;6.43;;;3.40;;
71769;SDS011;66386;52.122;5.420;2023-03-21T12:49:50;10.57;;;4.17;;
71769;SDS011;66386;52.122;5.420;2023-03-21T12:52:24;8.63;;;4.30;;
71769;SDS011;66386;52.122;5.420;2023-03-21T12:57:29;11.90;;;4.60;;
71769;SDS011;66386;52.122;5.420;2023-03-21T13:00:21;7.13;;;4.00;;
71769;SDS011;66386;52.122;5.420;2023-03-21T13:05:37;7.38;;;4.45;;
71769;SDS011;66386;52.122;5.420;2023-03-21T13:08:17;7.43;;;4.28;;
71769;SDS011;66386;52.122;5.420;2023-03-21T13:10:50;8.23;;;4.53;;
71769;SDS011;66386;52.122;5.420;2023-03-21T13:18:43;8.38;;;5.03;;
71769;SDS011;66386;52.122;5.420;2023-03-21T13:21:28;10.05;;;4.90;;
71769;SDS011;66386;52.122;5.420;2023-03-21T13:27:13;7.97;;;4.80;;
71769;SDS011;66386;52.122;5.420;2023-03-21T13:29:48;7.53;;;5.07;;
71769;SDS011;66386;52.122;5.420;2023-03-21T13:32:29;7.05;;;4.90;;
71769;SDS011;66386;52.122;5.420;2023-03-21T13:35:00;6.97;;;5.43;;
71769;SDS011;66386;52.122;5.420;2023-03-21T13:37:31;6.03;;;5.05;;
71769;SDS011;66386;52.122;5.420;2023-03-21T13:40:00;8.05;;;5.85;;
71769;SDS011;66386;52.122;5.420;2023-03-21T13:42:40;7.97;;;5.00;;
71769;SDS011;66386;52.122;5.420;2023-03-21T13:45:10;8.60;;;5.47;;
71769;SDS011;66386;52.122;5.420;2023-03-21T13:47:55;6.70;;;4.85;;
71769;SDS011;66386;52.122;5.420;2023-03-21T13:50:25;6.10;;;5.00;;
71769;SDS011;66386;52.122;5.420;2023-03-21T13:55:41;6.63;;;4.57;;
71769;SDS011;66386;52.122;5.420;2023-03-21T14:01:10;7.28;;;4.53;;
71769;SDS011;66386;52.122;5.420;2023-03-21T14:03:57;7.85;;;4.88;;
71769;SDS011;66386;52.122;5.420;2023-03-21T14:06:43;10.52;;;5.07;;
71769;SDS011;66386;52.122;5.420;2023-03-21T14:09:57;9.27;;;4.40;;
71769;SDS011;66386;52.122;5.420;2023-03-21T14:12:06;11.77;;;5.22;;
71769;SDS011;66386;52.122;5.420;2023-03-21T14:14:37;6.95;;;4.53;;
71769;SDS011;66386;52.122;5.420;2023-03-21T14:17:25;7.32;;;4.90;;
71769;SDS011;66386;52.122;5.420;2023-03-21T14:19:55;6.95;;;4.32;;
71769;SDS011;66386;52.122;5.420;2023-03-21T14:22:26;7.60;;;4.97;;
71769;SDS011;66386;52.122;5.420;2023-03-21T14:24:58;13.10;;;5.60;;
71769;SDS011;66386;52.122;5.420;2023-03-21T14:27:30;7.63;;;5.13;;
71769;SDS011;66386;52.122;5.420;2023-03-21T14:29:57;11.75;;;4.88;;
71769;SDS011;66386;52.122;5.420;2023-03-21T14:32:27;8.07;;;4.90;;
71769;SDS011;66386;52.122;5.420;2023-03-21T14:34:56;10.33;;;5.43;;
71769;SDS011;66386;52.122;5.420;2023-03-21T14:37:30;7.72;;;4.57;;
71769;SDS011;66386;52.122;5.420;2023-03-21T14:40:00;9.63;;;5.10;;
71769;SDS011;66386;52.122;5.420;2023-03-21T14:42:33;7.68;;;4.93;;
71769;SDS011;66386;52.122;5.420;2023-03-21T14:45:17;6.30;;;5.38;;
71769;SDS011;66386;52.122;5.420;2023-03-21T14:47:56;11.20;;;4.93;;
71769;SDS011;66386;52.122;5.420;2023-03-21T14:50:46;8.43;;;4.63;;
71769;SDS011;66386;52.122;5.420;2023-03-21T14:53:22;7.50;;;5.05;;
71769;SDS011;66386;52.122;5.420;2023-03-21T14:55:57;6.97;;;4.47;;
71769;SDS011;66386;52.122;5.420;2023-03-21T14:58:28;6.05;;;4.75;;
71769;SDS011;66386;52.122;5.420;2023-03-21T15:00:57;8.27;;;4.63;;
71769;SDS011;66386;52.122;5.420;2023-03-21T15:03:28;7.15;;;5.20;;
71769;SDS011;66386;52.122;5.420;2023-03-21T15:05:56;6.95;;;5.03;;
71769;SDS011;66386;52.122;5.420;2023-03-21T15:08:25;8.57;;;5.90;;
71769;SDS011;66386;52.122;5.420;2023-03-21T15:11:01;10.40;;;4.93;;
71769;SDS011;66386;52.122;5.420;2023-03-21T15:13:40;7.17;;;5.27;;
71769;SDS011;66386;52.122;5.420;2023-03-21T15:16:11;7.32;;;5.05;;
71769;SDS011;66386;52.122;5.420;2023-03-21T15:18:41;6.43;;;4.80;;
71769;SDS011;66386;52.122;5.420;2023-03-21T15:21:11;6.53;;;4.93;;
71769;SDS011;66386;52.122;5.420;2023-03-21T15:23:43;7.07;;;4.63;;
71769;SDS011;66386;52.122;5.420;2023-03-21T15:26:17;5.33;;;4.40;;
71769;SDS011;66386;52.122;5.420;2023-03-21T15:28:48;9.73;;;5.53;;
71769;SDS011;66386;52.122;5.420;2023-03-21T15:31:17;7.05;;;5.28;;
71769;SDS011;66386;52.122;5.420;2023-03-21T15:33:49;9.98;;;5.53;;
71769;SDS011;66386;52.122;5.420;2023-03-21T15:36:25;9.27;;;5.43;;
71769;SDS011;66386;52.122;5.420;2023-03-21T15:38:54;7.13;;;4.80;;
71769;SDS011;66386;52.122;5.420;2023-03-21T15:43:48;7.13;;;5.10;;
71769;SDS011;66386;52.122;5.420;2023-03-21T15:46:44;8.65;;;5.07;;
71769;SDS011;66386;52.122;5.420;2023-03-21T15:54:41;6.70;;;5.13;;
71769;SDS011;66386;52.122;5.420;2023-03-21T15:57:23;6.85;;;5.22;;
71769;SDS011;66386;52.122;5.420;2023-03-21T15:59:55;8.25;;;5.00;;
71769;SDS011;66386;52.122;5.420;2023-03-21T16:02:33;7.23;;;5.00;;
71769;SDS011;66386;52.122;5.420;2023-03-21T16:05:01;8.43;;;5.43;;
71769;SDS011;66386;52.122;5.420;2023-03-21T16:07:49;8.35;;;5.15;;
71769;SDS011;66386;52.122;5.420;2023-03-21T16:10:27;9.02;;;4.95;;
71769;SDS011;66386;52.122;5.420;2023-03-21T16:13:02;9.00;;;5.57;;
71769;SDS011;66386;52.122;5.420;2023-03-21T16:15:30;10.90;;;5.57;;
71769;SDS011;66386;52.122;5.420;2023-03-21T16:17:59;8.83;;;5.30;;
71769;SDS011;66386;52.122;5.420;2023-03-21T16:20:28;7.72;;;5.50;;
71769;SDS011;66386;52.122;5.420;2023-03-21T16:22:59;9.80;;;5.68;;
71769;SDS011;66386;52.122;5.420;2023-03-21T16:25:27;9.07;;;5.90;;
71769;SDS011;66386;52.122;5.420;2023-03-21T16:27:54;8.20;;;5.07;;
71769;SDS011;66386;52.122;5.420;2023-03-21T16:30:22;7.33;;;4.93;;
71769;SDS011;66386;52.122;5.420;2023-03-21T16:32:49;10.70;;;5.47;;
71769;SDS011;66386;52.122;5.420;2023-03-21T16:35:15;8.90;;;5.65;;
71769;SDS011;66386;52.122;5.420;2023-03-21T16:37:43;7.68;;;5.93;;
71769;SDS011;66386;52.122;5.420;2023-03-21T16:40:20;13.63;;;6.18;;